sensor_id;sensor_type;location;lat;lon;timestamp;temperature;humidity
59007;DHT22;44792;52.760;6.726;2022-09-23T00:00:19;10.60;99.90
59007;DHT22;44792;52.760;6.726;2022-09-23T00:02:45;10.60;99.90
59007;DHT22;44792;52.760;6.726;2022-09-23T00:05:13;10.70;99.90
59007;DHT22;44792;52.760;6.726;2022-09-23T00:07:38;10.70;99.90
59007;DHT22;44792;52.760;6.726;2022-09-23T00:10:05;10.70;99.90
59007;DHT22;44792;52.760;6.726;2022-09-23T00:12:31;10.70;99.90
59007;DHT22;44792;52.760;6.726;2022-09-23T00:14:56;10.70;99.90
59007;DHT22;44792;52.760;6.726;2022-09-23T00:17:22;10.80;99.90
59007;DHT22;44792;52.760;6.726;2022-09-23T00:19:48;10.70;99.90
59007;DHT22;44792;52.760;6.726;2022-09-23T00:22:14;10.70;99.90
59007;DHT22;44792;52.760;6.726;2022-09-23T00:24:39;10.70;99.90
59007;DHT22;44792;52.760;6.726;2022-09-23T00:27:05;10.70;99.90
59007;DHT22;44792;52.760;6.726;2022-09-23T00:29:30;10.60;99.90
59007;DHT22;44792;52.760;6.726;2022-09-23T00:31:56;10.60;99.90
59007;DHT22;44792;52.760;6.726;2022-09-23T00:34:22;10.70;99.90
59007;DHT22;44792;52.760;6.726;2022-09-23T00:36:47;10.60;99.90
59007;DHT22;44792;52.760;6.726;2022-09-23T00:39:13;10.60;99.90
59007;DHT22;44792;52.760;6.726;2022-09-23T00:41:39;10.60;99.90
59007;DHT22;44792;52.760;6.726;2022-09-23T00:47:04;10.60;99.90
59007;DHT22;44792;52.760;6.726;2022-09-23T00:49:30;10.50;99.90
59007;DHT22;44792;52.760;6.726;2022-09-23T00:52:04;10.60;99.90
59007;DHT22;44792;52.760;6.726;2022-09-23T00:54:31;10.50;99.90
59007;DHT22;44792;52.760;6.726;2022-09-23T00:56:58;10.50;99.90
59007;DHT22;44792;52.760;6.726;2022-09-23T00:59:24;10.50;99.90
59007;DHT22;44792;52.760;6.726;2022-09-23T01:01:52;10.50;99.90
59007;DHT22;44792;52.760;6.726;2022-09-23T01:04:22;10.40;99.90
59007;DHT22;44792;52.760;6.726;2022-09-23T01:06:48;10.40;99.90
59007;DHT22;44792;52.760;6.726;2022-09-23T01:09:15;10.40;99.90
59007;DHT22;44792;52.760;6.726;2022-09-23T01:17:33;10.20;99.90
59007;DHT22;44792;52.760;6.726;2022-09-23T01:20:52;10.30;99.90
59007;DHT22;44792;52.760;6.726;2022-09-23T01:28:46;10.20;99.90
59007;DHT22;44792;52.760;6.726;2022-09-23T01:31:41;10.10;99.90
59007;DHT22;44792;52.760;6.726;2022-09-23T01:34:22;10.10;99.90
59007;DHT22;44792;52.760;6.726;2022-09-23T01:36:57;10.10;99.90
59007;DHT22;44792;52.760;6.726;2022-09-23T01:39:35;10.10;99.90
59007;DHT22;44792;52.760;6.726;2022-09-23T01:42:19;10.10;99.90
59007;DHT22;44792;52.760;6.726;2022-09-23T01:47:26;10.10;99.90
59007;DHT22;44792;52.760;6.726;2022-09-23T01:50:05;10.00;99.90
59007;DHT22;44792;52.760;6.726;2022-09-23T01:52:53;10.00;99.90
59007;DHT22;44792;52.760;6.726;2022-09-23T01:55:29;10.10;99.90
59007;DHT22;44792;52.760;6.726;2022-09-23T01:59:06;10.00;99.90
59007;DHT22;44792;52.760;6.726;2022-09-23T02:01:00;9.90;99.90
59007;DHT22;44792;52.760;6.726;2022-09-23T02:06:08;9.90;99.90
59007;DHT22;44792;52.760;6.726;2022-09-23T02:08:56;9.90;99.90
59007;DHT22;44792;52.760;6.726;2022-09-23T02:11:22;9.90;99.90
59007;DHT22;44792;52.760;6.726;2022-09-23T02:13:50;9.80;99.90
59007;DHT22;44792;52.760;6.726;2022-09-23T02:16:44;9.80;99.90
59007;DHT22;44792;52.760;6.726;2022-09-23T02:19:12;9.80;99.90
59007;DHT22;44792;52.760;6.726;2022-09-23T02:21:45;9.80;99.90
59007;DHT22;44792;52.760;6.726;2022-09-23T02:24:20;9.70;99.90
59007;DHT22;44792;52.760;6.726;2022-09-23T02:29:47;9.70;99.90
59007;DHT22;44792;52.760;6.726;2022-09-23T02:41:17;9.80;99.90
59007;DHT22;44792;52.760;6.726;2022-09-23T02:43:58;9.70;99.90
59007;DHT22;44792;52.760;6.726;2022-09-23T02:46:27;9.70;99.90
59007;DHT22;44792;52.760;6.726;2022-09-23T02:49:02;9.70;99.90
59007;DHT22;44792;52.760;6.726;2022-09-23T02:51:29;9.60;99.90
59007;DHT22;44792;52.760;6.726;2022-09-23T02:54:04;9.70;99.90
59007;DHT22;44792;52.760;6.726;2022-09-23T02:56:32;9.60;99.90
59007;DHT22;44792;52.760;6.726;2022-09-23T02:58:58;9.60;99.90
59007;DHT22;44792;52.760;6.726;2022-09-23T03:06:32;9.70;99.90
59007;DHT22;44792;52.760;6.726;2022-09-23T03:09:14;9.70;99.90
59007;DHT22;44792;52.760;6.726;2022-09-23T03:11:49;9.60;99.90
59007;DHT22;44792;52.760;6.726;2022-09-23T03:14:21;9.60;99.90
59007;DHT22;44792;52.760;6.726;2022-09-23T03:16:55;9.50;99.90
59007;DHT22;44792;52.760;6.726;2022-09-23T03:19:36;9.50;99.90
59007;DHT22;44792;52.760;6.726;2022-09-23T03:22:13;9.40;99.90
59007;DHT22;44792;52.760;6.726;2022-09-23T03:24:44;9.40;99.90
59007;DHT22;44792;52.760;6.726;2022-09-23T03:27:14;9.30;99.90
59007;DHT22;44792;52.760;6.726;2022-09-23T03:29:48;9.30;99.90
59007;DHT22;44792;52.760;6.726;2022-09-23T03:32:17;9.30;99.90
59007;DHT22;44792;52.760;6.726;2022-09-23T03:34:45;9.30;99.90
59007;DHT22;44792;52.760;6.726;2022-09-23T03:40:15;9.30;99.90
59007;DHT22;44792;52.760;6.726;2022-09-23T03:42:42;9.30;99.90
59007;DHT22;44792;52.760;6.726;2022-09-23T03:45:12;9.30;99.90
59007;DHT22;44792;52.760;6.726;2022-09-23T03:47:42;9.30;99.90
59007;DHT22;44792;52.760;6.726;2022-09-23T03:50:09;9.40;99.90
59007;DHT22;44792;52.760;6.726;2022-09-23T03:52:34;9.40;99.90
59007;DHT22;44792;52.760;6.726;2022-09-23T03:55:01;9.40;99.90
59007;DHT22;44792;52.760;6.726;2022-09-23T03:57:26;9.40;99.90
59007;DHT22;44792;52.760;6.726;2022-09-23T03:59:52;9.40;99.90
59007;DHT22;44792;52.760;6.726;2022-09-23T04:02:19;9.40;99.90
59007;DHT22;44792;52.760;6.726;2022-09-23T04:04:44;9.40;99.90
59007;DHT22;44792;52.760;6.726;2022-09-23T04:07:11;9.30;99.90
59007;DHT22;44792;52.760;6.726;2022-09-23T04:09:37;9.20;99.90
59007;DHT22;44792;52.760;6.726;2022-09-23T04:12:03;9.20;99.90
59007;DHT22;44792;52.760;6.726;2022-09-23T04:14:29;9.20;99.90
59007;DHT22;44792;52.760;6.726;2022-09-23T04:16:55;9.20;99.90
59007;DHT22;44792;52.760;6.726;2022-09-23T04:19:21;9.20;99.90
59007;DHT22;44792;52.760;6.726;2022-09-23T04:21:47;9.20;99.90
59007;DHT22;44792;52.760;6.726;2022-09-23T04:24:13;9.20;99.90
59007;DHT22;44792;52.760;6.726;2022-09-23T04:26:39;9.20;99.90
59007;DHT22;44792;52.760;6.726;2022-09-23T04:29:05;9.20;99.90
59007;DHT22;44792;52.760;6.726;2022-09-23T04:31:32;9.20;99.90
59007;DHT22;44792;52.760;6.726;2022-09-23T04:33:58;9.20;99.90
59007;DHT22;44792;52.760;6.726;2022-09-23T04:36:24;9.20;99.90
59007;DHT22;44792;52.760;6.726;2022-09-23T04:38:49;9.20;99.90
59007;DHT22;44792;52.760;6.726;2022-09-23T04:41:16;9.10;99.90
59007;DHT22;44792;52.760;6.726;2022-09-23T04:43:43;9.20;99.90
59007;DHT22;44792;52.760;6.726;2022-09-23T04:46:10;9.20;99.90
59007;DHT22;44792;52.760;6.726;2022-09-23T04:48:38;9.30;99.90
59007;DHT22;44792;52.760;6.726;2022-09-23T04:51:06;9.30;99.90
59007;DHT22;44792;52.760;6.726;2022-09-23T04:53:34;9.20;99.90
59007;DHT22;44792;52.760;6.726;2022-09-23T04:56:05;9.20;99.90
59007;DHT22;44792;52.760;6.726;2022-09-23T04:58:31;9.30;99.90
59007;DHT22;44792;52.760;6.726;2022-09-23T05:01:17;9.30;99.90
59007;DHT22;44792;52.760;6.726;2022-09-23T05:03:43;9.30;99.90
59007;DHT22;44792;52.760;6.726;2022-09-23T05:06:10;9.20;99.90
59007;DHT22;44792;52.760;6.726;2022-09-23T05:08:38;9.20;99.90
59007;DHT22;44792;52.760;6.726;2022-09-23T05:11:05;9.10;99.90
59007;DHT22;44792;52.760;6.726;2022-09-23T05:13:31;9.10;99.90
59007;DHT22;44792;52.760;6.726;2022-09-23T05:16:02;9.10;99.90
59007;DHT22;44792;52.760;6.726;2022-09-23T05:18:32;9.10;99.90
59007;DHT22;44792;52.760;6.726;2022-09-23T05:20:59;9.10;99.90
59007;DHT22;44792;52.760;6.726;2022-09-23T05:23:25;9.00;99.90
59007;DHT22;44792;52.760;6.726;2022-09-23T05:26:00;8.90;99.90
59007;DHT22;44792;52.760;6.726;2022-09-23T05:28:27;9.00;99.90
59007;DHT22;44792;52.760;6.726;2022-09-23T05:31:01;9.00;99.90
59007;DHT22;44792;52.760;6.726;2022-09-23T05:33:27;9.00;99.90
59007;DHT22;44792;52.760;6.726;2022-09-23T05:35:54;8.90;99.90
59007;DHT22;44792;52.760;6.726;2022-09-23T05:38:19;8.90;99.90
59007;DHT22;44792;52.760;6.726;2022-09-23T05:40:45;8.90;99.90
59007;DHT22;44792;52.760;6.726;2022-09-23T05:43:10;8.90;99.90
59007;DHT22;44792;52.760;6.726;2022-09-23T05:45:36;8.80;99.90
59007;DHT22;44792;52.760;6.726;2022-09-23T05:48:02;8.80;99.90
59007;DHT22;44792;52.760;6.726;2022-09-23T05:50:27;8.80;99.90
59007;DHT22;44792;52.760;6.726;2022-09-23T05:52:53;8.70;99.90
59007;DHT22;44792;52.760;6.726;2022-09-23T05:55:19;8.70;99.90
59007;DHT22;44792;52.760;6.726;2022-09-23T05:57:44;8.70;99.90
59007;DHT22;44792;52.760;6.726;2022-09-23T06:00:10;8.70;99.90
59007;DHT22;44792;52.760;6.726;2022-09-23T06:02:36;8.80;99.90
59007;DHT22;44792;52.760;6.726;2022-09-23T06:05:01;8.80;99.90
59007;DHT22;44792;52.760;6.726;2022-09-23T06:07:27;8.70;99.90
59007;DHT22;44792;52.760;6.726;2022-09-23T06:09:52;8.90;99.90
59007;DHT22;44792;52.760;6.726;2022-09-23T06:12:18;8.90;99.90
59007;DHT22;44792;52.760;6.726;2022-09-23T06:14:44;9.00;99.90
59007;DHT22;44792;52.760;6.726;2022-09-23T06:17:09;9.00;99.90
59007;DHT22;44792;52.760;6.726;2022-09-23T06:19:35;9.10;99.90
59007;DHT22;44792;52.760;6.726;2022-09-23T06:22:00;9.00;99.90
59007;DHT22;44792;52.760;6.726;2022-09-23T06:24:26;9.10;99.90
59007;DHT22;44792;52.760;6.726;2022-09-23T06:26:51;9.20;99.90
59007;DHT22;44792;52.760;6.726;2022-09-23T06:29:17;9.20;99.90
59007;DHT22;44792;52.760;6.726;2022-09-23T06:31:43;9.30;99.90
59007;DHT22;44792;52.760;6.726;2022-09-23T06:34:10;9.40;99.90
59007;DHT22;44792;52.760;6.726;2022-09-23T06:36:36;9.50;99.90
59007;DHT22;44792;52.760;6.726;2022-09-23T06:39:01;9.50;99.90
59007;DHT22;44792;52.760;6.726;2022-09-23T06:41:27;9.60;99.90
59007;DHT22;44792;52.760;6.726;2022-09-23T06:43:53;9.70;99.90
59007;DHT22;44792;52.760;6.726;2022-09-23T06:46:18;9.70;99.90
59007;DHT22;44792;52.760;6.726;2022-09-23T06:48:45;9.80;99.90
59007;DHT22;44792;52.760;6.726;2022-09-23T06:51:12;9.90;99.90
59007;DHT22;44792;52.760;6.726;2022-09-23T06:53:47;10.00;99.90
59007;DHT22;44792;52.760;6.726;2022-09-23T06:56:13;10.00;99.90
59007;DHT22;44792;52.760;6.726;2022-09-23T06:58:38;10.10;99.90
59007;DHT22;44792;52.760;6.726;2022-09-23T07:01:06;10.10;99.90
59007;DHT22;44792;52.760;6.726;2022-09-23T07:03:33;10.20;99.90
59007;DHT22;44792;52.760;6.726;2022-09-23T07:05:59;10.30;99.90
59007;DHT22;44792;52.760;6.726;2022-09-23T07:08:26;10.30;99.90
59007;DHT22;44792;52.760;6.726;2022-09-23T07:10:54;10.40;99.90
59007;DHT22;44792;52.760;6.726;2022-09-23T07:13:20;10.40;99.90
59007;DHT22;44792;52.760;6.726;2022-09-23T07:15:54;10.40;99.90
59007;DHT22;44792;52.760;6.726;2022-09-23T07:18:21;10.50;99.90
59007;DHT22;44792;52.760;6.726;2022-09-23T07:20:50;10.60;99.90
59007;DHT22;44792;52.760;6.726;2022-09-23T07:23:16;10.60;99.90
59007;DHT22;44792;52.760;6.726;2022-09-23T07:25:45;10.70;99.90
59007;DHT22;44792;52.760;6.726;2022-09-23T07:28:14;10.70;99.90
59007;DHT22;44792;52.760;6.726;2022-09-23T07:30:40;10.80;99.90
59007;DHT22;44792;52.760;6.726;2022-09-23T07:33:07;10.90;99.90
59007;DHT22;44792;52.760;6.726;2022-09-23T07:35:33;10.90;99.90
59007;DHT22;44792;52.760;6.726;2022-09-23T07:37:59;11.00;99.90
59007;DHT22;44792;52.760;6.726;2022-09-23T08:00:45;11.50;99.90
59007;DHT22;44792;52.760;6.726;2022-09-23T08:03:10;11.50;99.90
59007;DHT22;44792;52.760;6.726;2022-09-23T08:05:36;11.50;99.90
59007;DHT22;44792;52.760;6.726;2022-09-23T08:08:03;11.60;99.90
59007;DHT22;44792;52.760;6.726;2022-09-23T08:10:32;11.60;99.90
59007;DHT22;44792;52.760;6.726;2022-09-23T08:12:57;11.70;99.90
59007;DHT22;44792;52.760;6.726;2022-09-23T08:15:24;11.70;99.90
59007;DHT22;44792;52.760;6.726;2022-09-23T08:17:51;11.70;99.90
59007;DHT22;44792;52.760;6.726;2022-09-23T08:20:17;11.80;99.90
59007;DHT22;44792;52.760;6.726;2022-09-23T08:23:02;11.80;99.90
59007;DHT22;44792;52.760;6.726;2022-09-23T08:25:28;11.90;99.90
59007;DHT22;44792;52.760;6.726;2022-09-23T08:27:54;11.90;99.90
59007;DHT22;44792;52.760;6.726;2022-09-23T08:30:19;12.00;99.90
59007;DHT22;44792;52.760;6.726;2022-09-23T08:32:49;12.10;99.90
59007;DHT22;44792;52.760;6.726;2022-09-23T08:35:14;12.10;99.90
59007;DHT22;44792;52.760;6.726;2022-09-23T08:37:40;12.10;99.90
59007;DHT22;44792;52.760;6.726;2022-09-23T08:40:06;12.20;99.90
59007;DHT22;44792;52.760;6.726;2022-09-23T08:42:32;12.20;99.90
59007;DHT22;44792;52.760;6.726;2022-09-23T08:45:02;12.30;99.90
59007;DHT22;44792;52.760;6.726;2022-09-23T08:50:14;12.40;99.90
59007;DHT22;44792;52.760;6.726;2022-09-23T08:53:00;12.40;99.90
59007;DHT22;44792;52.760;6.726;2022-09-23T08:55:32;12.80;99.90
59007;DHT22;44792;52.760;6.726;2022-09-23T08:58:15;12.80;99.90
59007;DHT22;44792;52.760;6.726;2022-09-23T09:01:04;12.90;99.90
59007;DHT22;44792;52.760;6.726;2022-09-23T09:03:59;12.90;99.90
59007;DHT22;44792;52.760;6.726;2022-09-23T09:06:39;13.10;99.90
59007;DHT22;44792;52.760;6.726;2022-09-23T09:09:31;13.10;99.90
59007;DHT22;44792;52.760;6.726;2022-09-23T09:12:17;13.20;99.90
59007;DHT22;44792;52.760;6.726;2022-09-23T09:15:00;13.40;99.90
59007;DHT22;44792;52.760;6.726;2022-09-23T09:20:06;13.60;99.90
59007;DHT22;44792;52.760;6.726;2022-09-23T09:22:53;13.60;99.90
59007;DHT22;44792;52.760;6.726;2022-09-23T09:27:47;13.70;99.90
59007;DHT22;44792;52.760;6.726;2022-09-23T09:30:13;13.80;99.90
59007;DHT22;44792;52.760;6.726;2022-09-23T09:35:28;13.90;99.90
59007;DHT22;44792;52.760;6.726;2022-09-23T09:37:57;14.00;99.90
59007;DHT22;44792;52.760;6.726;2022-09-23T09:40:23;14.00;99.90
59007;DHT22;44792;52.760;6.726;2022-09-23T09:42:49;14.10;99.90
59007;DHT22;44792;52.760;6.726;2022-09-23T09:48:19;14.20;99.90
59007;DHT22;44792;52.760;6.726;2022-09-23T09:50:51;14.30;99.90
59007;DHT22;44792;52.760;6.726;2022-09-23T09:53:28;14.40;99.90
59007;DHT22;44792;52.760;6.726;2022-09-23T09:58:59;14.60;99.90
59007;DHT22;44792;52.760;6.726;2022-09-23T10:01:29;14.70;99.90
59007;DHT22;44792;52.760;6.726;2022-09-23T10:04:29;14.70;99.90
59007;DHT22;44792;52.760;6.726;2022-09-23T10:07:13;14.80;99.90
59007;DHT22;44792;52.760;6.726;2022-09-23T10:09:46;14.90;99.90
59007;DHT22;44792;52.760;6.726;2022-09-23T10:12:17;14.90;99.90
59007;DHT22;44792;52.760;6.726;2022-09-23T10:14:47;14.90;99.90
59007;DHT22;44792;52.760;6.726;2022-09-23T10:17:22;14.90;99.90
59007;DHT22;44792;52.760;6.726;2022-09-23T10:19:58;14.90;99.90
59007;DHT22;44792;52.760;6.726;2022-09-23T10:22:27;15.00;99.90
59007;DHT22;44792;52.760;6.726;2022-09-23T10:25:01;15.00;99.90
59007;DHT22;44792;52.760;6.726;2022-09-23T10:27:34;15.00;99.90
59007;DHT22;44792;52.760;6.726;2022-09-23T10:30:21;15.00;99.90
59007;DHT22;44792;52.760;6.726;2022-09-23T10:32:48;15.00;99.90
59007;DHT22;44792;52.760;6.726;2022-09-23T10:35:17;14.90;99.90
59007;DHT22;44792;52.760;6.726;2022-09-23T10:37:49;15.00;99.90
59007;DHT22;44792;52.760;6.726;2022-09-23T10:40:38;15.00;99.90
59007;DHT22;44792;52.760;6.726;2022-09-23T10:43:49;15.00;99.90
59007;DHT22;44792;52.760;6.726;2022-09-23T10:46:39;15.00;99.90
59007;DHT22;44792;52.760;6.726;2022-09-23T10:49:22;15.00;99.90
59007;DHT22;44792;52.760;6.726;2022-09-23T11:00:21;15.10;99.90
59007;DHT22;44792;52.760;6.726;2022-09-23T11:03:26;15.10;99.90
59007;DHT22;44792;52.760;6.726;2022-09-23T11:14:06;15.30;99.90
59007;DHT22;44792;52.760;6.726;2022-09-23T11:19:28;15.30;99.90
59007;DHT22;44792;52.760;6.726;2022-09-23T11:30:17;15.40;99.90
59007;DHT22;44792;52.760;6.726;2022-09-23T11:38:16;15.40;99.90
59007;DHT22;44792;52.760;6.726;2022-09-23T11:40:44;15.40;99.90
59007;DHT22;44792;52.760;6.726;2022-09-23T11:43:21;15.40;99.90
59007;DHT22;44792;52.760;6.726;2022-09-23T11:46:21;15.40;99.90
59007;DHT22;44792;52.760;6.726;2022-09-23T11:49:15;15.40;99.90
59007;DHT22;44792;52.760;6.726;2022-09-23T11:52:02;15.40;99.90
59007;DHT22;44792;52.760;6.726;2022-09-23T11:54:39;15.40;99.90
59007;DHT22;44792;52.760;6.726;2022-09-23T11:57:15;15.40;99.90
59007;DHT22;44792;52.760;6.726;2022-09-23T11:59:47;15.40;99.90
59007;DHT22;44792;52.760;6.726;2022-09-23T12:02:31;15.40;99.90
59007;DHT22;44792;52.760;6.726;2022-09-23T12:05:17;15.40;99.90
59007;DHT22;44792;52.760;6.726;2022-09-23T12:10:51;15.50;99.90
59007;DHT22;44792;52.760;6.726;2022-09-23T12:13:29;15.50;99.90
59007;DHT22;44792;52.760;6.726;2022-09-23T12:19:15;15.60;99.90
59007;DHT22;44792;52.760;6.726;2022-09-23T12:24:55;15.60;99.90
59007;DHT22;44792;52.760;6.726;2022-09-23T12:27:43;15.60;99.90
59007;DHT22;44792;52.760;6.726;2022-09-23T12:30:22;15.70;99.90
59007;DHT22;44792;52.760;6.726;2022-09-23T12:32:48;15.70;99.90
59007;DHT22;44792;52.760;6.726;2022-09-23T12:37:46;15.70;99.90
59007;DHT22;44792;52.760;6.726;2022-09-23T12:40:23;15.70;99.90
59007;DHT22;44792;52.760;6.726;2022-09-23T12:42:54;15.70;99.90
59007;DHT22;44792;52.760;6.726;2022-09-23T12:48:24;15.80;99.90
59007;DHT22;44792;52.760;6.726;2022-09-23T12:56:00;15.80;99.90
59007;DHT22;44792;52.760;6.726;2022-09-23T13:01:19;15.80;99.90
59007;DHT22;44792;52.760;6.726;2022-09-23T13:03:50;15.70;99.90
59007;DHT22;44792;52.760;6.726;2022-09-23T13:06:57;15.80;99.90
59007;DHT22;44792;52.760;6.726;2022-09-23T13:09:30;15.80;99.90
59007;DHT22;44792;52.760;6.726;2022-09-23T13:12:00;15.80;99.90
59007;DHT22;44792;52.760;6.726;2022-09-23T13:14:27;15.80;99.90
59007;DHT22;44792;52.760;6.726;2022-09-23T13:16:55;15.80;99.90
59007;DHT22;44792;52.760;6.726;2022-09-23T13:22:05;15.80;99.90
59007;DHT22;44792;52.760;6.726;2022-09-23T13:24:45;15.90;99.90
59007;DHT22;44792;52.760;6.726;2022-09-23T13:27:21;15.90;99.90
59007;DHT22;44792;52.760;6.726;2022-09-23T13:30:16;15.90;99.90
59007;DHT22;44792;52.760;6.726;2022-09-23T13:32:49;16.00;99.90
59007;DHT22;44792;52.760;6.726;2022-09-23T13:35:24;15.90;99.90
59007;DHT22;44792;52.760;6.726;2022-09-23T13:37:53;16.00;99.90
59007;DHT22;44792;52.760;6.726;2022-09-23T13:40:38;15.90;99.90
59007;DHT22;44792;52.760;6.726;2022-09-23T13:43:12;15.90;99.90
59007;DHT22;44792;52.760;6.726;2022-09-23T13:45:38;16.00;99.90
59007;DHT22;44792;52.760;6.726;2022-09-23T13:48:09;16.00;99.90
59007;DHT22;44792;52.760;6.726;2022-09-23T13:50:37;16.00;99.90
59007;DHT22;44792;52.760;6.726;2022-09-23T13:53:08;16.00;99.90
59007;DHT22;44792;52.760;6.726;2022-09-23T13:55:36;16.00;99.90
59007;DHT22;44792;52.760;6.726;2022-09-23T13:58:23;15.90;99.90
59007;DHT22;44792;52.760;6.726;2022-09-23T14:00:49;15.90;99.90
59007;DHT22;44792;52.760;6.726;2022-09-23T14:03:34;15.90;99.90
59007;DHT22;44792;52.760;6.726;2022-09-23T14:06:03;15.90;99.90
59007;DHT22;44792;52.760;6.726;2022-09-23T14:08:30;15.90;99.90
59007;DHT22;44792;52.760;6.726;2022-09-23T14:10:57;16.00;99.90
59007;DHT22;44792;52.760;6.726;2022-09-23T14:13:29;16.00;99.90
59007;DHT22;44792;52.760;6.726;2022-09-23T14:15:58;16.00;99.90
59007;DHT22;44792;52.760;6.726;2022-09-23T14:18:38;16.00;99.90
59007;DHT22;44792;52.760;6.726;2022-09-23T14:21:08;16.00;99.90
59007;DHT22;44792;52.760;6.726;2022-09-23T14:23:50;16.00;99.90
59007;DHT22;44792;52.760;6.726;2022-09-23T14:26:16;16.00;99.90
59007;DHT22;44792;52.760;6.726;2022-09-23T14:28:41;16.00;99.90
59007;DHT22;44792;52.760;6.726;2022-09-23T14:31:07;16.00;99.90
59007;DHT22;44792;52.760;6.726;2022-09-23T14:33:39;16.00;99.90
59007;DHT22;44792;52.760;6.726;2022-09-23T14:36:08;16.00;99.90
59007;DHT22;44792;52.760;6.726;2022-09-23T14:39:03;16.00;99.90
59007;DHT22;44792;52.760;6.726;2022-09-23T14:41:34;16.00;99.90
59007;DHT22;44792;52.760;6.726;2022-09-23T14:44:01;16.00;99.90
59007;DHT22;44792;52.760;6.726;2022-09-23T14:46:32;15.90;99.90
59007;DHT22;44792;52.760;6.726;2022-09-23T14:56:53;15.90;99.90
59007;DHT22;44792;52.760;6.726;2022-09-23T14:59:30;15.80;99.90
59007;DHT22;44792;52.760;6.726;2022-09-23T15:01:56;15.80;99.90
59007;DHT22;44792;52.760;6.726;2022-09-23T15:06:50;15.80;99.90
59007;DHT22;44792;52.760;6.726;2022-09-23T15:09:37;15.70;99.90
59007;DHT22;44792;52.760;6.726;2022-09-23T15:12:09;15.70;99.90
59007;DHT22;44792;52.760;6.726;2022-09-23T15:14:39;15.70;99.90
59007;DHT22;44792;52.760;6.726;2022-09-23T15:17:13;15.70;99.90
59007;DHT22;44792;52.760;6.726;2022-09-23T15:19:40;15.60;99.90
59007;DHT22;44792;52.760;6.726;2022-09-23T15:22:07;15.60;99.90
59007;DHT22;44792;52.760;6.726;2022-09-23T15:27:01;15.60;99.90
59007;DHT22;44792;52.760;6.726;2022-09-23T15:29:27;15.60;99.90
59007;DHT22;44792;52.760;6.726;2022-09-23T15:31:52;15.60;99.90
59007;DHT22;44792;52.760;6.726;2022-09-23T15:34:18;15.50;99.90
59007;DHT22;44792;52.760;6.726;2022-09-23T15:36:45;15.50;99.90
59007;DHT22;44792;52.760;6.726;2022-09-23T15:39:11;15.60;99.90
59007;DHT22;44792;52.760;6.726;2022-09-23T15:41:37;15.80;99.90
59007;DHT22;44792;52.760;6.726;2022-09-23T15:44:15;15.80;99.90
59007;DHT22;44792;52.760;6.726;2022-09-23T15:46:45;15.90;99.90
59007;DHT22;44792;52.760;6.726;2022-09-23T15:49:21;16.00;99.90
59007;DHT22;44792;52.760;6.726;2022-09-23T15:51:50;16.10;99.90
59007;DHT22;44792;52.760;6.726;2022-09-23T15:54:16;16.10;99.90
59007;DHT22;44792;52.760;6.726;2022-09-23T15:56:44;16.20;99.90
59007;DHT22;44792;52.760;6.726;2022-09-23T15:59:10;16.20;99.90
59007;DHT22;44792;52.760;6.726;2022-09-23T16:01:36;16.20;99.90
59007;DHT22;44792;52.760;6.726;2022-09-23T16:04:03;16.30;99.90
59007;DHT22;44792;52.760;6.726;2022-09-23T16:06:30;16.30;99.90
59007;DHT22;44792;52.760;6.726;2022-09-23T16:08:56;16.30;99.90
59007;DHT22;44792;52.760;6.726;2022-09-23T16:11:26;16.30;99.90
59007;DHT22;44792;52.760;6.726;2022-09-23T16:13:59;16.40;99.90
59007;DHT22;44792;52.760;6.726;2022-09-23T16:16:25;16.40;99.90
59007;DHT22;44792;52.760;6.726;2022-09-23T16:18:52;16.30;99.90
59007;DHT22;44792;52.760;6.726;2022-09-23T16:21:20;16.40;99.90
59007;DHT22;44792;52.760;6.726;2022-09-23T16:23:47;16.40;99.90
59007;DHT22;44792;52.760;6.726;2022-09-23T16:26:20;16.40;99.90
59007;DHT22;44792;52.760;6.726;2022-09-23T16:28:47;16.40;99.90
59007;DHT22;44792;52.760;6.726;2022-09-23T16:31:13;16.40;99.90
59007;DHT22;44792;52.760;6.726;2022-09-23T16:33:41;16.40;99.90
59007;DHT22;44792;52.760;6.726;2022-09-23T16:36:13;16.40;99.90
59007;DHT22;44792;52.760;6.726;2022-09-23T16:38:40;16.30;99.90
59007;DHT22;44792;52.760;6.726;2022-09-23T16:41:06;16.40;99.90
59007;DHT22;44792;52.760;6.726;2022-09-23T16:43:33;16.30;99.90
59007;DHT22;44792;52.760;6.726;2022-09-23T16:46:14;16.20;99.90
59007;DHT22;44792;52.760;6.726;2022-09-23T16:48:41;16.20;99.90
59007;DHT22;44792;52.760;6.726;2022-09-23T16:51:21;16.20;99.90
59007;DHT22;44792;52.760;6.726;2022-09-23T16:53:48;16.20;99.90
59007;DHT22;44792;52.760;6.726;2022-09-23T16:56:15;16.20;99.90
59007;DHT22;44792;52.760;6.726;2022-09-23T16:58:42;16.20;99.90
59007;DHT22;44792;52.760;6.726;2022-09-23T17:01:13;16.10;99.90
59007;DHT22;44792;52.760;6.726;2022-09-23T17:03:58;16.10;99.90
59007;DHT22;44792;52.760;6.726;2022-09-23T17:06:23;16.00;99.90
59007;DHT22;44792;52.760;6.726;2022-09-23T17:08:52;16.00;99.90
59007;DHT22;44792;52.760;6.726;2022-09-23T17:11:18;16.00;99.90
59007;DHT22;44792;52.760;6.726;2022-09-23T17:13:45;15.90;99.90
59007;DHT22;44792;52.760;6.726;2022-09-23T17:16:21;15.90;99.90
59007;DHT22;44792;52.760;6.726;2022-09-23T17:18:47;15.90;99.90
59007;DHT22;44792;52.760;6.726;2022-09-23T17:21:12;15.90;99.90
59007;DHT22;44792;52.760;6.726;2022-09-23T17:23:38;15.90;99.90
59007;DHT22;44792;52.760;6.726;2022-09-23T17:26:04;15.90;99.90
59007;DHT22;44792;52.760;6.726;2022-09-23T17:28:30;15.80;99.90
59007;DHT22;44792;52.760;6.726;2022-09-23T17:31:00;15.80;99.90
59007;DHT22;44792;52.760;6.726;2022-09-23T17:33:28;15.90;99.90
59007;DHT22;44792;52.760;6.726;2022-09-23T17:35:54;15.80;99.90
59007;DHT22;44792;52.760;6.726;2022-09-23T17:38:22;15.80;99.90
59007;DHT22;44792;52.760;6.726;2022-09-23T17:40:52;15.80;99.90
59007;DHT22;44792;52.760;6.726;2022-09-23T17:43:19;15.70;99.90
59007;DHT22;44792;52.760;6.726;2022-09-23T17:45:51;15.60;99.90
59007;DHT22;44792;52.760;6.726;2022-09-23T17:48:17;15.60;99.90
59007;DHT22;44792;52.760;6.726;2022-09-23T17:50:58;15.60;99.90
59007;DHT22;44792;52.760;6.726;2022-09-23T17:53:25;15.50;99.90
59007;DHT22;44792;52.760;6.726;2022-09-23T17:55:57;15.50;99.90
59007;DHT22;44792;52.760;6.726;2022-09-23T17:58:28;15.40;99.90
59007;DHT22;44792;52.760;6.726;2022-09-23T18:00:54;15.40;99.90
59007;DHT22;44792;52.760;6.726;2022-09-23T18:03:21;15.40;99.90
59007;DHT22;44792;52.760;6.726;2022-09-23T18:05:47;15.40;99.90
59007;DHT22;44792;52.760;6.726;2022-09-23T18:08:12;15.40;99.90
59007;DHT22;44792;52.760;6.726;2022-09-23T18:10:38;15.30;99.90
59007;DHT22;44792;52.760;6.726;2022-09-23T18:13:03;15.40;99.90
59007;DHT22;44792;52.760;6.726;2022-09-23T18:15:29;15.30;99.90
59007;DHT22;44792;52.760;6.726;2022-09-23T18:17:55;15.30;99.90
59007;DHT22;44792;52.760;6.726;2022-09-23T18:20:20;15.30;99.90
59007;DHT22;44792;52.760;6.726;2022-09-23T18:22:46;15.40;99.90
59007;DHT22;44792;52.760;6.726;2022-09-23T18:25:11;15.30;99.90